Aviation Digital Data Service (ADDS)

Output produced by TAFs form (2344 UTC 02 September 2014)
found at http://www.aviationweather.gov/adds/tafs/
 
KMDT 022324Z 0300/0324 23010G16KT P6SM BKN100 
     TEMPO 0301/0302 -SHRA BKN040 
     FM030400 28005KT 3SM BR SCT040 
     FM031000 VRB03KT 2SM BR SKC 
     FM031300 VRB03KT 6SM HZ SKC